Accueil
METAR-TAF:

METAR-TAF

Aéroports :

La Roche-sur-Yon, France

Les Ajoncs

latitude: 46-42N, longitude: 001-23W, altitude: 90 m

Observation

Le bulletin a été fait il y a 31 minutes, à 08:30 UTC
Vent 3 kt de direction variable
Température 8°C
Humidité 66%
Pression 1020 hPa
Visibilité 10 km ou plus
pas de nuages en-dessous de 1500 mètres et pas de cumulonimbus.

METAR: LFRI 270830Z AUTO VRB03KT CAVOK 08/02 Q1020 NOSIG

Heure: 11:01 (09:01 UTC)

Prévision

Le bulletin a été fait il y a 4 heures et 1 minutes, à 05:00 UTC
Prévision valable du 27 à 06 UTC au 28 à 06 UTC
Vent 7 kt de nord
Visibilité 10 km ou plus
pas de nuages en-dessous de 1500 mètres et pas de cumulonimbus.
Temporairement
du 27 à 12 UTC au 27 à 18 UTC
Nuages épars à une hauteur de 2600 ft, Cumulus congestus.
averses de pluie

TAF: LFRI 270500Z 2706/2806 35007KT CAVOK TEMPO 2712/2718 SHRA SCT026TCU

Observations et prévisions météorologiques de plus de 4000 aéroports (messages METAR et TAF).

Les stations disponibles sont représentées par des disques jaunes et rouges sur la carte.

Passer la souris dessus pour voir le nom de la station.

Cliquer dessus pour voir les observations et prévisions météorologiques.

Pour changer de carte: cliquez sur les boutons verts avec une croix noire pour zoomer, sur le bouton vert avec un tiret pour effectuer un zoom arrière, ou sur les flèches vertes pour les cartes adjacentes.


METAR-TAF: